createdAt,value
2018-04-24T00:02:28.137Z,14.30
2018-04-24T00:05:50.578Z,14.30
2018-04-24T00:09:13.009Z,14.30
2018-04-24T00:12:36.226Z,14.30
2018-04-24T00:15:58.681Z,14.20
2018-04-24T00:19:21.109Z,14.20
2018-04-24T00:22:44.326Z,14.20
2018-04-24T00:26:06.777Z,14.20
2018-04-24T00:29:29.985Z,14.20
2018-04-24T00:32:52.438Z,14.20
2018-04-24T00:36:14.870Z,14.20
2018-04-24T00:39:38.115Z,14.20
2018-04-24T00:43:00.517Z,14.20
2018-04-24T00:46:23.735Z,14.20
2018-04-24T00:49:46.199Z,14.20
2018-04-24T00:53:20.357Z,14.20
2018-04-24T00:56:42.795Z,14.20
2018-04-24T01:00:05.221Z,14.20
2018-04-24T01:03:27.674Z,14.20
2018-04-24T01:06:50.121Z,14.20
2018-04-24T01:10:12.548Z,14.20
2018-04-24T01:13:35.265Z,14.20
2018-04-24T01:16:57.698Z,14.10
2018-04-24T01:20:20.133Z,14.10
2018-04-24T01:23:43.337Z,14.10
2018-04-24T01:27:05.776Z,14.10
2018-04-24T01:30:29.658Z,14.10
2018-04-24T01:33:52.086Z,14.10
2018-04-24T01:37:14.528Z,14.20
2018-04-24T01:40:37.669Z,14.20
2018-04-24T01:44:00.105Z,14.20
2018-04-24T01:47:22.541Z,14.10
2018-04-24T01:50:44.981Z,14.10
2018-04-24T01:54:08.195Z,14.10
2018-04-24T01:57:30.630Z,14.10
2018-04-24T02:00:53.833Z,14.10
2018-04-24T02:04:16.284Z,14.10
2018-04-24T02:07:39.490Z,14.00
2018-04-24T02:11:01.926Z,14.00
2018-04-24T02:14:25.130Z,14.00
2018-04-24T02:17:47.561Z,14.00
2018-04-24T02:21:10.006Z,14.00
2018-04-24T02:24:32.445Z,14.00
2018-04-24T02:27:54.893Z,14.00
2018-04-24T02:31:17.338Z,14.00
2018-04-24T02:34:40.548Z,14.00
2018-04-24T02:38:02.979Z,13.90
2018-04-24T02:41:26.185Z,14.00
2018-04-24T02:44:48.637Z,13.90
2018-04-24T02:48:11.837Z,14.00
2018-04-24T02:51:34.281Z,13.90
2018-04-24T02:54:59.098Z,13.90
2018-04-24T02:58:22.297Z,13.90
2018-04-24T03:01:44.736Z,13.90
2018-04-24T03:05:07.941Z,13.80
2018-04-24T03:08:30.373Z,13.80
2018-04-24T03:11:52.877Z,13.80
2018-04-24T03:15:15.246Z,13.80
2018-04-24T03:18:37.689Z,13.70
2018-04-24T03:22:00.897Z,13.70
2018-04-24T03:25:23.341Z,13.70
2018-04-24T03:28:46.550Z,13.70
2018-04-24T03:32:09.226Z,13.70
2018-04-24T03:35:31.689Z,13.70
2018-04-24T03:38:54.121Z,13.70
2018-04-24T03:42:18.321Z,13.60
2018-04-24T03:45:41.597Z,13.60
2018-04-24T03:49:04.793Z,13.60
2018-04-24T03:52:28.009Z,13.60
2018-04-24T03:55:50.462Z,13.60
2018-04-24T03:59:12.893Z,13.60
2018-04-24T04:02:36.097Z,13.60
2018-04-24T04:05:58.622Z,13.60
2018-04-24T04:09:21.076Z,13.60
2018-04-24T04:12:47.287Z,13.60
2018-04-24T04:16:09.731Z,13.60
2018-04-24T04:19:44.822Z,13.50
2018-04-24T04:23:19.025Z,13.50
2018-04-24T04:26:43.061Z,13.50
2018-04-24T04:30:05.503Z,13.40
2018-04-24T04:33:28.741Z,13.40
2018-04-24T04:36:51.189Z,13.40
2018-04-24T04:40:13.617Z,13.30
2018-04-24T04:43:36.824Z,13.40
2018-04-24T04:46:59.264Z,13.30
2018-04-24T04:50:22.470Z,13.30
2018-04-24T04:53:44.917Z,13.30
2018-04-24T04:57:08.177Z,13.40
2018-04-24T05:00:30.593Z,13.40
2018-04-24T05:03:53.029Z,13.40
2018-04-24T05:07:16.236Z,13.50
2018-04-24T05:10:38.672Z,13.50
2018-04-24T05:14:01.885Z,13.60
2018-04-24T05:17:26.190Z,13.60
2018-04-24T05:20:48.638Z,13.70
2018-04-24T05:24:11.844Z,13.80
2018-04-24T05:27:34.289Z,13.80
2018-04-24T05:30:56.725Z,13.90
2018-04-24T05:34:19.433Z,14.20
2018-04-24T05:37:41.874Z,14.50
2018-04-24T05:41:05.069Z,14.80
2018-04-24T05:44:28.284Z,15.20
2018-04-24T05:47:50.715Z,15.20
2018-04-24T05:51:13.922Z,16.10
2018-04-24T05:54:36.362Z,16.00
2018-04-24T05:57:59.793Z,17.00
2018-04-24T06:01:22.228Z,16.90
2018-04-24T06:04:44.672Z,17.30
2018-04-24T06:08:07.885Z,18.10
2018-04-24T06:11:30.324Z,18.00
2018-04-24T06:14:53.550Z,18.70
2018-04-24T06:18:16.009Z,18.70
2018-04-24T06:21:38.440Z,18.90
2018-04-24T06:25:01.653Z,18.60
2018-04-24T06:28:24.193Z,18.60
2018-04-24T06:31:46.547Z,18.80
2018-04-24T06:35:09.753Z,19.40
2018-04-24T06:38:32.196Z,19.30
2018-04-24T06:41:55.449Z,20.10
2018-04-24T06:45:17.889Z,20.10
2018-04-24T06:48:40.389Z,20.40
2018-04-24T06:52:02.863Z,20.70
2018-04-24T06:55:25.353Z,21.10
2018-04-24T06:58:47.785Z,21.20
2018-04-24T07:02:10.240Z,21.30
2018-04-24T07:05:32.681Z,21.50
2018-04-24T07:08:55.114Z,21.70
2018-04-24T07:12:17.548Z,21.50
2018-04-24T07:15:40.143Z,21.50
2018-04-24T07:19:05.632Z,21.70
2018-04-24T07:22:28.077Z,21.90
2018-04-24T07:25:50.534Z,22.00
2018-04-24T07:29:12.985Z,22.30
2018-04-24T07:32:35.417Z,22.60
2018-04-24T07:35:57.873Z,23.00
2018-04-24T07:39:20.317Z,23.30
2018-04-24T07:42:42.770Z,23.10
2018-04-24T07:46:05.203Z,22.50
2018-04-24T07:49:27.637Z,22.20
2018-04-24T07:52:50.101Z,21.70
2018-04-24T07:56:12.643Z,21.30
2018-04-24T07:59:35.076Z,21.10
2018-04-24T08:02:57.522Z,21.10
2018-04-24T08:06:19.966Z,21.20
2018-04-24T08:09:42.400Z,21.30
2018-04-24T08:13:04.840Z,21.30
2018-04-24T08:16:27.479Z,21.30
2018-04-24T08:19:49.885Z,21.30
2018-04-24T08:23:12.320Z,20.80
2018-04-24T08:26:35.559Z,21.70
2018-04-24T08:29:58.086Z,21.70
2018-04-24T08:33:20.540Z,22.40
2018-04-24T08:36:42.993Z,23.00
2018-04-24T08:40:06.254Z,24.00
2018-04-24T08:43:28.641Z,24.00
2018-04-24T08:46:51.849Z,25.10
2018-04-24T08:50:14.290Z,25.10
2018-04-24T08:53:37.498Z,25.50
2018-04-24T08:56:59.940Z,25.40
2018-04-24T09:00:22.373Z,25.80
2018-04-24T09:03:44.905Z,26.00
2018-04-24T09:07:07.360Z,26.30
2018-04-24T09:10:29.792Z,26.50
2018-04-24T09:13:53.012Z,26.30
2018-04-24T09:17:15.455Z,26.30
2018-04-24T09:20:38.457Z,26.40
2018-04-24T09:24:00.896Z,26.20
2018-04-24T09:27:24.240Z,25.40
2018-04-24T09:30:46.670Z,25.60
2018-04-24T09:34:09.109Z,26.00
2018-04-24T09:37:31.620Z,26.10
2018-04-24T09:40:54.037Z,26.60
2018-04-24T09:44:16.489Z,26.80
2018-04-24T09:47:39.698Z,27.30
2018-04-24T09:51:02.142Z,27.20
2018-04-24T09:54:25.420Z,26.90
2018-04-24T09:57:47.776Z,26.90
2018-04-24T10:01:10.981Z,26.40
2018-04-24T10:04:33.421Z,26.30
2018-04-24T10:07:55.857Z,26.00
2018-04-24T10:11:19.065Z,25.60
2018-04-24T10:14:41.506Z,25.60
2018-04-24T10:18:03.938Z,25.60
2018-04-24T10:21:26.382Z,26.00
2018-04-24T10:24:48.825Z,26.30
2018-04-24T10:28:11.262Z,26.70
2018-04-24T10:31:33.696Z,26.80
2018-04-24T10:34:56.142Z,26.80
2018-04-24T10:38:20.169Z,27.50
2018-04-24T10:41:42.596Z,27.50
2018-04-24T10:45:05.802Z,27.20
2018-04-24T10:48:28.246Z,27.20
2018-04-24T10:51:51.506Z,27.50
2018-04-24T10:55:13.889Z,27.40
2018-04-24T10:58:37.105Z,27.70
2018-04-24T11:01:59.529Z,27.60
2018-04-24T11:05:21.973Z,27.40
2018-04-24T11:08:44.415Z,27.70
2018-04-24T11:12:06.844Z,28.00
2018-04-24T11:15:30.056Z,28.10
2018-04-24T11:18:52.490Z,28.10
2018-04-24T11:22:15.696Z,28.30
2018-04-24T11:25:38.132Z,28.30
2018-04-24T11:29:01.332Z,27.90
2018-04-24T11:32:23.835Z,27.90
2018-04-24T11:35:46.997Z,26.40
2018-04-24T11:39:09.426Z,26.40
2018-04-24T11:42:32.637Z,26.10
2018-04-24T11:45:55.112Z,26.10
2018-04-24T11:49:17.568Z,26.10
2018-04-24T11:52:40.018Z,26.40
2018-04-24T11:56:03.948Z,26.80
2018-04-24T11:59:26.405Z,27.00
2018-04-24T12:02:48.969Z,27.00
2018-04-24T12:06:11.328Z,27.30
2018-04-24T12:09:33.770Z,27.40
2018-04-24T12:12:56.993Z,27.40
2018-04-24T12:16:19.425Z,27.40
2018-04-24T12:19:41.863Z,27.10
2018-04-24T12:23:05.112Z,26.60
2018-04-24T12:26:27.561Z,26.60
2018-04-24T12:29:49.993Z,26.50
2018-04-24T12:33:12.441Z,26.40
2018-04-24T12:36:34.880Z,26.50
2018-04-24T12:39:57.312Z,26.40
2018-04-24T12:43:19.758Z,26.20
2018-04-24T12:46:42.209Z,26.00
2018-04-24T12:50:05.405Z,25.90
2018-04-24T12:53:27.849Z,25.90
2018-04-24T12:56:51.056Z,25.90
2018-04-24T13:00:13.485Z,25.80
2018-04-24T13:03:35.954Z,25.60
2018-04-24T13:06:58.371Z,25.60
2018-04-24T13:10:20.808Z,25.30
2018-04-24T13:13:44.009Z,24.80
2018-04-24T13:17:06.457Z,24.80
2018-04-24T13:20:28.897Z,24.70
2018-04-24T13:23:51.348Z,24.70
2018-04-24T13:27:13.789Z,24.70
2018-04-24T13:30:36.222Z,24.70
2018-04-24T13:33:58.665Z,24.50
2018-04-24T13:37:21.885Z,24.00
2018-04-24T13:40:45.316Z,24.00
2018-04-24T13:44:09.578Z,24.10
2018-04-24T13:47:32.004Z,24.00
2018-04-24T13:50:54.437Z,24.00
2018-04-24T13:54:16.880Z,24.00
2018-04-24T13:57:39.441Z,23.90
2018-04-24T14:01:01.884Z,23.70
2018-04-24T14:04:25.081Z,23.70
2018-04-24T14:07:49.508Z,23.70
2018-04-24T14:11:11.953Z,23.60
2018-04-24T14:14:34.388Z,23.40
2018-04-24T14:17:57.589Z,23.40
2018-04-24T14:21:20.175Z,23.30
2018-04-24T14:24:42.600Z,23.30
2018-04-24T14:28:05.801Z,23.40
2018-04-24T14:31:29.009Z,23.40
2018-04-24T14:34:51.457Z,23.30
2018-04-24T14:38:14.650Z,23.20
2018-04-24T14:41:40.180Z,23.20
2018-04-24T14:45:02.692Z,23.10
2018-04-24T14:48:25.118Z,23.20
2018-04-24T14:51:47.557Z,23.10
2018-04-24T14:55:10.761Z,23.00
2018-04-24T14:58:33.198Z,23.00
2018-04-24T15:01:56.417Z,23.00
2018-04-24T15:05:18.862Z,23.00
2018-04-24T15:08:42.062Z,22.80
2018-04-24T15:12:04.500Z,22.80
2018-04-24T15:15:27.701Z,22.70
2018-04-24T15:18:50.142Z,22.60
2018-04-24T15:22:12.626Z,22.60
2018-04-24T15:25:35.921Z,22.40
2018-04-24T15:28:58.357Z,22.40
2018-04-24T15:32:20.793Z,22.30
2018-04-24T15:35:43.244Z,22.20
2018-04-24T15:39:05.669Z,22.20
2018-04-24T15:42:28.881Z,22.20
2018-04-24T15:45:57.809Z,22.20
2018-04-24T15:49:20.616Z,22.20
2018-04-24T15:52:44.096Z,22.10
2018-04-24T15:56:07.776Z,22.10
2018-04-24T15:59:36.685Z,22.10
2018-04-24T16:03:00.044Z,22.00
2018-04-24T16:06:24.477Z,21.90
2018-04-24T16:09:48.860Z,22.00
2018-04-24T16:13:12.332Z,21.90
2018-04-24T16:16:37.255Z,21.70
2018-04-24T16:20:01.304Z,21.70
2018-04-24T16:23:27.493Z,21.70
2018-04-24T16:26:49.933Z,21.60
2018-04-24T16:30:13.201Z,21.70
2018-04-24T16:33:35.641Z,21.60
2018-04-24T16:36:58.124Z,21.60
2018-04-24T16:40:21.328Z,21.60
2018-04-24T16:43:43.772Z,21.60
2018-04-24T16:47:06.977Z,21.50
2018-04-24T16:50:29.413Z,21.50
2018-04-24T16:53:52.617Z,21.40
2018-04-24T16:57:15.077Z,21.40
2018-04-24T17:00:38.229Z,21.30
2018-04-24T17:04:00.662Z,21.20
2018-04-24T17:07:23.101Z,21.10
2018-04-24T17:10:45.529Z,21.10
2018-04-24T17:14:08.776Z,21.00
2018-04-24T17:17:32.806Z,20.90
2018-04-24T17:20:55.241Z,20.90
2018-04-24T17:24:17.695Z,20.80
2018-04-24T17:27:45.235Z,20.80
2018-04-24T17:31:08.442Z,20.60
2018-04-24T17:34:35.455Z,20.60
2018-04-24T17:37:57.907Z,20.50
2018-04-24T17:41:22.490Z,20.40
2018-04-24T17:44:45.686Z,20.20
2018-04-24T17:48:08.154Z,20.20
2018-04-24T17:51:30.572Z,20.10
2018-04-24T17:54:53.014Z,20.00
2018-04-24T17:58:15.460Z,19.90
2018-04-24T18:01:49.182Z,19.80
2018-04-24T18:05:14.811Z,19.70
2018-04-24T18:08:37.274Z,19.70
2018-04-24T18:11:59.700Z,19.60
2018-04-24T18:15:22.137Z,19.50
2018-04-24T18:18:44.579Z,19.40
2018-04-24T18:22:07.020Z,19.30
2018-04-24T18:25:30.231Z,19.10
2018-04-24T18:28:52.665Z,19.00
2018-04-24T18:32:15.864Z,18.80
2018-04-24T18:39:17.717Z,18.70
2018-04-24T18:46:19.726Z,18.40
2018-04-24T18:49:42.957Z,18.10
2018-04-24T18:53:05.460Z,18.10
2018-04-24T18:56:27.853Z,18.00
2018-04-24T18:59:50.292Z,18.00
2018-04-24T19:03:13.497Z,17.80
2018-04-24T19:06:36.696Z,17.60
2018-04-24T19:09:59.137Z,17.60
2018-04-24T19:13:22.432Z,17.50
2018-04-24T19:16:44.773Z,17.40
2018-04-24T19:20:07.229Z,17.30
2018-04-24T19:23:29.744Z,17.20
2018-04-24T19:26:52.239Z,17.20
2018-04-24T19:30:14.680Z,17.10
2018-04-24T19:33:37.130Z,17.00
2018-04-24T19:37:01.973Z,16.90
2018-04-24T19:40:30.349Z,16.70
2018-04-24T19:43:53.941Z,16.50
2018-04-24T19:47:16.380Z,16.50
2018-04-24T19:50:39.393Z,16.40
2018-04-24T19:54:01.838Z,16.30
2018-04-24T19:57:25.028Z,16.10
2018-04-24T20:00:48.229Z,16.00
2018-04-24T20:04:10.663Z,16.00
2018-04-24T20:07:33.860Z,15.90
2018-04-24T20:10:57.077Z,15.80
2018-04-24T20:14:19.509Z,15.80
2018-04-24T20:17:41.936Z,15.70
2018-04-24T20:21:04.372Z,15.70
2018-04-24T20:24:26.822Z,15.60
2018-04-24T20:27:49.305Z,15.60
2018-04-24T20:31:12.509Z,15.50
2018-04-24T20:34:34.951Z,15.50
2018-04-24T20:37:59.565Z,15.40
2018-04-24T20:41:22.001Z,15.40
2018-04-24T20:44:44.441Z,15.30
2018-04-24T20:48:07.662Z,15.10
2018-04-24T20:51:30.146Z,15.10
2018-04-24T20:54:52.588Z,15.10
2018-04-24T20:58:15.013Z,15.10
2018-04-24T21:01:38.225Z,14.90
2018-04-24T21:05:01.417Z,14.80
2018-04-24T21:08:23.848Z,14.70
2018-04-24T21:11:46.381Z,14.70
2018-04-24T21:15:08.829Z,14.60
2018-04-24T21:18:31.293Z,14.50
2018-04-24T21:21:53.756Z,14.50
2018-04-24T21:25:16.192Z,14.40
2018-04-24T21:28:38.635Z,14.30
2018-04-24T21:32:01.166Z,14.20
2018-04-24T21:35:23.611Z,14.20
2018-04-24T21:38:46.045Z,14.10
2018-04-24T21:42:09.254Z,14.00
2018-04-24T21:45:31.746Z,14.00
2018-04-24T21:48:54.204Z,14.00
2018-04-24T21:52:16.637Z,14.00
2018-04-24T21:55:39.078Z,14.00
2018-04-24T21:59:01.510Z,13.90
2018-04-24T22:02:23.949Z,13.90
2018-04-24T22:05:46.389Z,13.90
2018-04-24T22:09:08.816Z,13.90
2018-04-24T22:12:31.257Z,13.80
2018-04-24T22:15:53.689Z,13.80
2018-04-24T22:19:16.125Z,13.80
2018-04-24T22:22:38.558Z,13.70
2018-04-24T22:26:00.997Z,13.70
2018-04-24T22:29:23.441Z,13.70
2018-04-24T22:32:46.635Z,13.50
2018-04-24T22:36:09.077Z,13.50
2018-04-24T22:39:32.278Z,13.50
2018-04-24T22:42:54.705Z,13.40
2018-04-24T22:46:18.669Z,13.40
2018-04-24T22:49:41.224Z,13.40
2018-04-24T22:53:03.721Z,13.40
2018-04-24T22:56:26.165Z,13.30
2018-04-24T22:59:48.606Z,13.30
2018-04-24T23:03:11.060Z,13.20
2018-04-24T23:06:34.281Z,13.10
2018-04-24T23:09:56.239Z,13.10
2018-04-24T23:13:30.580Z,13.10
2018-04-24T23:17:04.925Z,13.00
2018-04-24T23:20:26.870Z,13.00
2018-04-24T23:23:49.305Z,13.00
2018-04-24T23:27:12.538Z,12.90
2018-04-24T23:30:34.983Z,12.90
2018-04-24T23:33:57.408Z,12.90
2018-04-24T23:37:20.611Z,12.90
2018-04-24T23:40:44.030Z,12.80
2018-04-24T23:44:06.458Z,12.80
2018-04-24T23:47:28.901Z,12.80
2018-04-24T23:50:51.367Z,12.80
2018-04-24T23:54:13.896Z,12.80
2018-04-24T23:57:36.338Z,12.70
